createdAt,value
2018-06-05T00:00:52.302Z,962.04
2018-06-05T00:01:52.225Z,962.05
2018-06-05T00:02:52.183Z,962.07
2018-06-05T00:03:52.138Z,962.08
2018-06-05T00:04:52.128Z,962.09
2018-06-05T00:05:52.051Z,962.08
2018-06-05T00:06:52.037Z,962.09
2018-06-05T00:07:51.962Z,962.08
2018-06-05T00:08:51.925Z,962.05
2018-06-05T00:09:51.872Z,962.03
2018-06-05T00:10:51.829Z,962.05
2018-06-05T00:11:51.818Z,962.04
2018-06-05T00:12:51.743Z,961.99
2018-06-05T00:13:51.699Z,962.04
2018-06-05T00:14:51.655Z,962.05
2018-06-05T00:15:51.616Z,962.04
2018-06-05T00:16:51.599Z,962.06
2018-06-05T00:17:51.522Z,962.04
2018-06-05T00:18:51.477Z,962.03
2018-06-05T00:19:51.434Z,962.04
2018-06-05T00:20:51.390Z,962.03
2018-06-05T00:21:51.368Z,962.00
2018-06-05T00:22:51.303Z,961.98
2018-06-05T00:23:51.256Z,961.97
2018-06-05T00:24:51.214Z,961.98
2018-06-05T00:25:51.209Z,962.01
2018-06-05T00:26:51.176Z,962.00
2018-06-05T00:27:51.079Z,961.99
2018-06-05T00:28:51.039Z,962.02
2018-06-05T00:29:50.992Z,961.98
2018-06-05T00:30:50.991Z,962.02
2018-06-05T00:31:50.905Z,962.00
2018-06-05T00:32:50.861Z,962.02
2018-06-05T00:33:50.823Z,962.00
2018-06-05T00:34:50.769Z,962.02
2018-06-05T00:35:50.760Z,961.99
2018-06-05T00:36:50.685Z,962.00
2018-06-05T00:37:50.667Z,962.02
2018-06-05T00:38:50.595Z,962.03
2018-06-05T00:39:50.582Z,962.02
2018-06-05T00:40:50.503Z,962.03
2018-06-05T00:41:50.465Z,962.01
2018-06-05T00:42:50.417Z,962.01
2018-06-05T00:43:50.373Z,962.01
2018-06-05T00:44:50.363Z,962.00
2018-06-05T00:45:50.284Z,961.97
2018-06-05T00:46:50.240Z,962.04
2018-06-05T00:47:50.195Z,961.98
2018-06-05T00:48:50.180Z,961.99
2018-06-05T00:49:50.135Z,961.98
2018-06-05T00:50:50.059Z,962.02
2018-06-05T00:51:50.016Z,961.97
2018-06-05T00:52:49.972Z,961.98
2018-06-05T00:53:49.927Z,962.00
2018-06-05T00:54:49.929Z,961.98
2018-06-05T00:55:49.840Z,961.99
2018-06-05T00:56:49.795Z,961.95
2018-06-05T00:57:49.747Z,961.97
2018-06-05T00:58:49.702Z,961.95
2018-06-05T00:59:49.709Z,961.91
2018-06-05T01:00:49.615Z,961.90
2018-06-05T01:01:49.570Z,961.88
2018-06-05T01:02:49.526Z,961.91
2018-06-05T01:03:49.481Z,961.90
2018-06-05T01:04:49.477Z,961.91
2018-06-05T01:05:49.390Z,961.91
2018-06-05T01:06:49.347Z,961.91
2018-06-05T01:07:49.302Z,961.88
2018-06-05T01:08:49.259Z,961.88
2018-06-05T01:09:49.243Z,961.90
2018-06-05T01:10:49.168Z,961.89
2018-06-05T01:11:49.124Z,961.88
2018-06-05T01:12:49.120Z,961.90
2018-06-05T01:13:49.033Z,961.88
2018-06-05T01:14:48.994Z,961.91
2018-06-05T01:15:48.943Z,961.88
2018-06-05T01:16:48.900Z,961.92
2018-06-05T01:17:48.894Z,961.88
2018-06-05T01:18:48.810Z,961.90
2018-06-05T01:19:48.765Z,961.89
2018-06-05T01:20:48.722Z,961.88
2018-06-05T01:21:48.676Z,961.90
2018-06-05T01:22:48.674Z,961.88
2018-06-05T01:23:48.584Z,961.86
2018-06-05T01:24:48.540Z,961.90
2018-06-05T01:25:48.497Z,961.89
2018-06-05T01:26:48.452Z,961.93
2018-06-05T01:27:48.439Z,961.87
2018-06-05T01:28:48.392Z,961.91
2018-06-05T01:29:48.317Z,961.86
2018-06-05T01:30:48.269Z,961.89
2018-06-05T01:31:48.227Z,961.89
2018-06-05T01:32:48.222Z,961.89
2018-06-05T01:33:48.134Z,961.90
2018-06-05T01:34:48.090Z,961.94
2018-06-05T01:35:48.049Z,961.89
2018-06-05T01:36:48.001Z,961.89
2018-06-05T01:37:47.986Z,961.90
2018-06-05T01:38:47.910Z,961.90
2018-06-05T01:39:47.905Z,961.90
2018-06-05T01:40:47.820Z,961.84
2018-06-05T01:41:47.773Z,961.87
2018-06-05T01:42:47.729Z,961.88
2018-06-05T01:43:47.686Z,961.86
2018-06-05T01:44:47.679Z,961.88
2018-06-05T01:45:47.596Z,961.87
2018-06-05T01:46:47.547Z,961.89
2018-06-05T01:47:47.507Z,961.90
2018-06-05T01:48:47.461Z,961.91
2018-06-05T01:49:47.456Z,961.90
2018-06-05T01:50:47.375Z,961.90
2018-06-05T01:51:47.331Z,961.86
2018-06-05T01:52:47.279Z,961.85
2018-06-05T01:53:47.232Z,961.87
2018-06-05T01:54:47.211Z,961.85
2018-06-05T01:55:47.173Z,961.84
2018-06-05T01:56:47.102Z,961.85
2018-06-05T01:57:47.054Z,961.87
2018-06-05T01:58:47.008Z,961.84
2018-06-05T01:59:46.961Z,961.85
2018-06-05T02:00:46.951Z,961.83
2018-06-05T02:01:46.869Z,961.86
2018-06-05T02:02:46.824Z,961.86
2018-06-05T02:03:46.781Z,961.82
2018-06-05T02:04:46.734Z,961.88
2018-06-05T02:05:46.721Z,961.90
2018-06-05T02:06:46.645Z,961.89
2018-06-05T02:07:46.597Z,961.90
2018-06-05T02:08:46.557Z,961.90
2018-06-05T02:09:46.532Z,961.90
2018-06-05T02:10:46.502Z,961.90
2018-06-05T02:11:46.441Z,961.92
2018-06-05T02:12:46.376Z,961.92
2018-06-05T02:13:46.332Z,961.92
2018-06-05T02:14:46.280Z,961.91
2018-06-05T02:15:46.236Z,961.91
2018-06-05T02:16:46.228Z,961.90
2018-06-05T02:17:46.189Z,961.93
2018-06-05T02:18:46.098Z,961.89
2018-06-05T02:19:46.055Z,961.89
2018-06-05T02:20:46.008Z,961.90
2018-06-05T02:21:45.964Z,961.88
2018-06-05T02:22:45.953Z,961.88
2018-06-05T02:23:45.874Z,961.90
2018-06-05T02:24:45.828Z,961.88
2018-06-05T02:25:45.784Z,961.88
2018-06-05T02:26:45.759Z,961.89
2018-06-05T02:27:45.691Z,961.89
2018-06-05T02:28:45.650Z,961.90
2018-06-05T02:29:45.599Z,961.91
2018-06-05T02:30:45.607Z,961.94
2018-06-05T02:31:45.508Z,961.93
2018-06-05T02:32:45.465Z,961.90
2018-06-05T02:33:45.416Z,961.92
2018-06-05T02:34:45.373Z,961.96
2018-06-05T02:35:45.363Z,961.92
2018-06-05T02:36:45.280Z,961.92
2018-06-05T02:37:45.236Z,961.89
2018-06-05T02:38:45.190Z,961.92
2018-06-05T02:39:45.143Z,961.96
2018-06-05T02:40:45.133Z,961.94
2018-06-05T02:41:45.053Z,961.97
2018-06-05T02:42:45.009Z,961.95
2018-06-05T02:43:44.988Z,961.94
2018-06-05T02:44:44.919Z,961.97
2018-06-05T02:45:44.909Z,961.96
2018-06-05T02:46:44.851Z,961.97
2018-06-05T02:47:44.783Z,961.96
2018-06-05T02:48:44.736Z,961.97
2018-06-05T02:49:44.688Z,961.98
2018-06-05T02:50:44.646Z,961.97
2018-06-05T02:51:44.621Z,961.99
2018-06-05T02:52:44.553Z,961.99
2018-06-05T02:53:44.505Z,962.00
2018-06-05T02:54:44.460Z,962.00
2018-06-05T02:55:44.426Z,962.00
2018-06-05T02:56:44.409Z,961.96
2018-06-05T02:57:44.366Z,961.97
2018-06-05T02:58:44.278Z,962.03
2018-06-05T02:59:44.234Z,962.00
2018-06-05T03:00:44.191Z,961.99
2018-06-05T03:01:44.140Z,962.00
2018-06-05T03:02:44.131Z,961.96
2018-06-05T03:03:44.051Z,962.01
2018-06-05T03:04:44.003Z,961.98
2018-06-05T03:05:44.010Z,962.03
2018-06-05T03:06:43.914Z,962.01
2018-06-05T03:07:43.870Z,962.02
2018-06-05T03:08:43.821Z,962.03
2018-06-05T03:09:43.775Z,962.07
2018-06-05T03:10:43.764Z,962.02
2018-06-05T03:11:43.685Z,962.03
2018-06-05T03:12:43.640Z,962.07
2018-06-05T03:13:43.592Z,962.03
2018-06-05T03:14:43.581Z,962.02
2018-06-05T03:15:43.501Z,962.02
2018-06-05T03:16:43.460Z,962.09
2018-06-05T03:17:43.412Z,962.04
2018-06-05T03:18:43.364Z,962.06
2018-06-05T03:19:43.351Z,962.06
2018-06-05T03:20:43.271Z,962.04
2018-06-05T03:47:39.237Z,962.22
2018-06-05T03:48:39.183Z,962.20
2018-06-05T03:49:39.132Z,962.20
2018-06-05T03:50:39.087Z,962.25
2018-06-05T03:51:39.005Z,962.21
2018-06-05T03:52:38.960Z,962.28
2018-06-05T03:53:38.949Z,962.27
2018-06-05T03:54:38.868Z,962.32
2018-06-05T03:55:38.823Z,962.36
2018-06-05T03:56:38.778Z,962.35
2018-06-05T03:57:38.766Z,962.39
2018-06-05T03:58:38.684Z,962.31
2018-06-05T03:59:38.639Z,962.35
2018-06-05T04:00:38.593Z,962.32
2018-06-05T04:01:38.548Z,962.30
2018-06-05T04:02:38.543Z,962.29
2018-06-05T04:03:38.457Z,962.29
2018-06-05T04:04:38.413Z,962.28
2018-06-05T04:05:38.367Z,962.30
2018-06-05T04:06:38.321Z,962.39
2018-06-05T04:07:38.305Z,962.37
2018-06-05T04:08:38.337Z,962.44
2018-06-05T04:09:38.181Z,962.46
2018-06-05T04:10:38.172Z,962.47
2018-06-05T04:11:38.091Z,962.44
2018-06-05T04:12:38.047Z,962.48
2018-06-05T04:13:37.996Z,962.47
2018-06-05T04:14:37.951Z,962.50
2018-06-05T04:15:37.941Z,962.54
2018-06-05T04:16:37.896Z,962.52
2018-06-05T04:17:37.814Z,962.54
2018-06-05T04:18:37.769Z,962.55
2018-06-05T04:19:37.758Z,962.53
2018-06-05T04:20:37.720Z,962.56
2018-06-05T04:21:37.631Z,962.54
2018-06-05T04:22:37.585Z,962.55
2018-06-05T04:23:37.540Z,962.53
2018-06-05T04:24:37.494Z,962.55
2018-06-05T04:25:37.488Z,962.56
2018-06-05T04:26:37.402Z,962.56
2018-06-05T04:27:37.363Z,962.58
2018-06-05T04:28:37.312Z,962.55
2018-06-05T04:29:37.267Z,962.59
2018-06-05T04:30:37.255Z,962.62
2018-06-05T04:31:37.177Z,962.62
2018-06-05T04:32:37.178Z,962.62
2018-06-05T04:33:37.084Z,962.65
2018-06-05T04:34:37.037Z,962.63
2018-06-05T04:35:36.998Z,962.61
2018-06-05T04:36:36.947Z,962.63
2018-06-05T04:37:36.944Z,962.65
2018-06-05T04:38:36.855Z,962.65
2018-06-05T04:39:36.834Z,962.66
2018-06-05T04:40:36.765Z,962.68
2018-06-05T04:41:36.723Z,962.65
2018-06-05T04:42:36.712Z,962.71
2018-06-05T04:43:36.732Z,962.69
2018-06-05T04:44:36.583Z,962.71
2018-06-05T04:45:36.539Z,962.68
2018-06-05T04:46:36.497Z,962.71
2018-06-05T04:47:36.482Z,962.70
2018-06-05T04:48:36.405Z,962.74
2018-06-05T04:49:36.361Z,962.74
2018-06-05T04:50:36.312Z,962.70
2018-06-05T04:51:36.270Z,962.70
2018-06-05T04:52:36.256Z,962.73
2018-06-05T04:53:36.216Z,962.72
2018-06-05T04:54:36.131Z,962.72
2018-06-05T04:55:36.120Z,962.76
2018-06-05T04:56:36.039Z,962.76
2018-06-05T04:57:35.995Z,962.78
2018-06-05T04:58:35.997Z,962.79
2018-06-05T04:59:35.905Z,962.82
2018-06-05T05:00:35.863Z,962.78
2018-06-05T05:01:35.840Z,962.77
2018-06-05T05:02:35.767Z,962.76
2018-06-05T05:03:35.770Z,962.76
2018-06-05T05:04:35.678Z,962.74
2018-06-05T05:05:35.636Z,962.74
2018-06-05T05:06:35.586Z,962.75
2018-06-05T05:07:35.544Z,962.71
2018-06-05T05:08:35.534Z,962.78
2018-06-05T05:09:35.453Z,962.74
2018-06-05T05:10:35.407Z,962.75
2018-06-05T05:11:35.400Z,962.77
2018-06-05T05:12:35.319Z,962.77
2018-06-05T05:13:35.314Z,962.77
2018-06-05T05:14:35.225Z,962.75
2018-06-05T05:15:35.232Z,962.79
2018-06-05T05:16:35.137Z,962.78
2018-06-05T05:17:35.091Z,962.77
2018-06-05T05:18:35.048Z,962.78
2018-06-05T05:19:35.005Z,962.80
2018-06-05T05:20:35.004Z,962.81
2018-06-05T05:21:34.913Z,962.79
2018-06-05T05:22:34.870Z,962.81
2018-06-05T05:23:34.822Z,962.83
2018-06-05T05:24:34.776Z,962.81
2018-06-05T05:25:34.770Z,962.83
2018-06-05T05:26:34.726Z,962.83
2018-06-05T05:27:34.640Z,962.79
2018-06-05T05:28:34.595Z,962.82
2018-06-05T05:29:34.555Z,962.82
2018-06-05T05:30:34.506Z,962.79
2018-06-05T05:31:34.504Z,962.81
2018-06-05T05:32:34.418Z,962.79
2018-06-05T05:33:34.376Z,962.86
2018-06-05T05:34:34.327Z,962.83
2018-06-05T05:35:34.283Z,962.87
2018-06-05T05:36:34.277Z,962.89
2018-06-05T05:37:34.197Z,962.88
2018-06-05T05:38:34.150Z,962.90
2018-06-05T05:39:34.141Z,962.89
2018-06-05T05:40:34.099Z,962.93
2018-06-05T05:41:34.019Z,962.93
2018-06-05T05:42:33.970Z,962.96
2018-06-05T05:43:33.963Z,962.94
2018-06-05T05:44:33.928Z,962.96
2018-06-05T05:45:33.841Z,962.97
2018-06-05T05:46:33.792Z,962.96
2018-06-05T05:47:33.747Z,962.99
2018-06-05T05:48:33.703Z,962.97
2018-06-05T05:49:33.714Z,963.00
2018-06-05T05:50:33.612Z,962.96
2018-06-05T05:51:33.568Z,962.99
2018-06-05T05:52:33.532Z,963.01
2018-06-05T05:53:33.485Z,963.01
2018-06-05T05:54:33.519Z,962.98
2018-06-05T05:55:33.397Z,963.01
2018-06-05T05:56:33.352Z,963.00
2018-06-05T05:57:33.341Z,962.99
2018-06-05T05:58:33.258Z,962.99
2018-06-05T05:59:33.212Z,962.98
2018-06-05T06:00:33.207Z,962.97
2018-06-05T06:01:33.128Z,962.99
2018-06-05T06:02:33.085Z,962.99
2018-06-05T06:03:33.040Z,962.97
2018-06-05T06:04:33.032Z,963.01
2018-06-05T06:05:32.950Z,962.98
2018-06-05T06:06:32.941Z,962.98
2018-06-05T06:07:32.898Z,963.00
2018-06-05T06:08:32.821Z,963.00
2018-06-05T06:09:32.777Z,963.02
2018-06-05T06:10:32.726Z,962.98
2018-06-05T06:11:32.717Z,963.00
2018-06-05T06:12:32.637Z,963.04
2018-06-05T06:13:32.593Z,963.00
2018-06-05T06:14:32.549Z,963.04
2018-06-05T06:15:32.540Z,963.07
2018-06-05T06:16:32.460Z,963.05
2018-06-05T06:17:32.451Z,963.04
2018-06-05T06:18:32.373Z,963.07
2018-06-05T06:19:32.330Z,963.08
2018-06-05T06:20:32.283Z,963.09
2018-06-05T06:21:32.240Z,963.06
2018-06-05T06:22:32.237Z,963.04
2018-06-05T06:23:32.152Z,963.04
2018-06-05T06:24:32.106Z,963.08
2018-06-05T06:25:32.063Z,963.09
2018-06-05T06:26:32.018Z,963.11
2018-06-05T06:27:32.025Z,963.11
2018-06-05T06:28:31.939Z,963.13
2018-06-05T06:29:31.887Z,963.08
2018-06-05T06:30:31.843Z,963.09
2018-06-05T06:31:31.803Z,963.06
2018-06-05T06:32:31.802Z,963.12
2018-06-05T06:33:31.711Z,963.07
2018-06-05T06:34:31.663Z,963.11
2018-06-05T06:35:31.623Z,963.08
2018-06-05T06:36:31.578Z,963.06
2018-06-05T06:37:31.569Z,963.10
2018-06-05T06:38:31.499Z,963.13
2018-06-05T06:39:31.445Z,963.14
2018-06-05T06:40:31.402Z,963.15
2018-06-05T06:41:31.358Z,963.11
2018-06-05T06:42:31.356Z,963.12
2018-06-05T06:43:31.270Z,963.12
2018-06-05T06:44:31.225Z,963.16
2018-06-05T06:45:31.182Z,963.11
2018-06-05T06:46:31.136Z,963.06
2018-06-05T06:47:31.127Z,963.05
2018-06-05T06:48:31.095Z,963.06
2018-06-05T06:49:31.011Z,963.10
2018-06-05T06:50:30.963Z,963.05
2018-06-05T06:51:30.920Z,963.06
2018-06-05T06:52:30.875Z,963.08
2018-06-05T06:53:30.887Z,963.05
2018-06-05T06:54:30.794Z,963.12
2018-06-05T06:55:30.746Z,963.06
2018-06-05T06:56:30.701Z,963.14
2018-06-05T06:57:30.660Z,963.11
2018-06-05T06:58:30.657Z,963.15
2018-06-05T06:59:30.596Z,963.14
2018-06-05T07:00:30.526Z,963.15
2018-06-05T07:01:30.488Z,963.15
2018-06-05T07:02:30.448Z,963.16
2018-06-05T07:03:30.440Z,963.16
2018-06-05T07:04:30.355Z,963.15
2018-06-05T07:05:30.311Z,963.13
2018-06-05T07:06:30.268Z,963.14
2018-06-05T07:07:30.229Z,963.14
2018-06-05T07:08:30.212Z,963.15
2018-06-05T07:09:30.141Z,963.17
2018-06-05T07:10:30.099Z,963.11
2018-06-05T07:11:30.094Z,963.11
2018-06-05T07:12:30.020Z,963.10
2018-06-05T07:13:29.972Z,963.10
2018-06-05T07:14:29.924Z,963.11
2018-06-05T07:15:29.884Z,963.14
2018-06-05T07:16:29.877Z,963.16
2018-06-05T07:17:29.796Z,963.15
2018-06-05T07:18:29.755Z,963.17
2018-06-05T07:19:29.765Z,963.14
2018-06-05T07:20:29.671Z,963.18
2018-06-05T07:21:29.627Z,963.18
2018-06-05T07:22:29.588Z,963.22
2018-06-05T07:23:29.540Z,963.22
2018-06-05T07:24:29.550Z,963.25
2018-06-05T07:25:29.455Z,963.23
2018-06-05T07:26:29.412Z,963.26
2018-06-05T07:27:29.373Z,963.22
2018-06-05T07:28:29.333Z,963.19
2018-06-05T07:29:29.320Z,963.23
2018-06-05T07:30:29.305Z,963.20
2018-06-05T07:31:29.203Z,963.24
2018-06-05T07:32:29.163Z,963.24
2018-06-05T07:33:29.154Z,963.23
2018-06-05T07:34:29.075Z,963.24
2018-06-05T07:35:29.033Z,963.24
2018-06-05T07:36:29.024Z,963.25
2018-06-05T07:37:28.951Z,963.26
2018-06-05T07:38:28.913Z,963.28
2018-06-05T07:39:28.915Z,963.27
2018-06-05T07:40:28.824Z,963.32
2018-06-05T07:41:28.788Z,963.34
2018-06-05T07:42:28.744Z,963.31
2018-06-05T07:43:28.701Z,963.30
2018-06-05T07:44:28.712Z,963.30
2018-06-05T07:45:28.619Z,963.31
2018-06-05T07:46:28.576Z,963.30
2018-06-05T07:47:28.534Z,963.27
2018-06-05T07:48:28.494Z,963.27
2018-06-05T07:49:28.489Z,963.29
2018-06-05T07:50:28.407Z,963.27
2018-06-05T07:51:28.371Z,963.27
2018-06-05T07:52:28.328Z,963.27
2018-06-05T07:53:28.321Z,963.30
2018-06-05T07:54:28.244Z,963.30
2018-06-05T07:55:28.205Z,963.33
2018-06-05T07:56:28.164Z,963.31
2018-06-05T07:57:28.122Z,963.30
2018-06-05T07:58:28.112Z,963.35
2018-06-05T07:59:28.038Z,963.36
2018-06-05T08:00:27.998Z,963.36
2018-06-05T08:01:27.957Z,963.35
2018-06-05T08:02:27.916Z,963.30
2018-06-05T08:03:27.920Z,963.31
2018-06-05T08:04:27.835Z,963.27
2018-06-05T08:05:27.794Z,963.30
2018-06-05T08:06:27.750Z,963.32
2018-06-05T08:07:27.711Z,963.31
2018-06-05T08:08:27.705Z,963.34
2018-06-05T08:09:27.631Z,963.37
2018-06-05T08:10:27.640Z,963.36
2018-06-05T08:11:27.547Z,963.38
2018-06-05T08:12:27.510Z,963.37
2018-06-05T08:13:27.475Z,963.38
2018-06-05T08:14:27.427Z,963.41
2018-06-05T08:15:27.418Z,963.40
2018-06-05T08:16:27.345Z,963.43
2018-06-05T08:17:27.337Z,963.38
2018-06-05T08:18:27.269Z,963.36
2018-06-05T08:19:27.224Z,963.36
2018-06-05T08:20:27.187Z,963.38
2018-06-05T08:21:27.145Z,963.42
2018-06-05T08:22:27.137Z,963.42
2018-06-05T08:23:27.067Z,963.46
2018-06-05T08:24:27.064Z,963.44
2018-06-05T08:25:26.985Z,963.46
2018-06-05T08:26:26.941Z,963.45
2018-06-05T08:27:26.901Z,963.47
2018-06-05T08:28:26.865Z,963.52
2018-06-05T08:29:26.861Z,963.51
2018-06-05T08:30:26.788Z,963.49
2018-06-05T08:31:26.744Z,963.48
2018-06-05T08:32:26.709Z,963.48
2018-06-05T08:33:26.667Z,963.51
2018-06-05T08:34:26.672Z,963.48
2018-06-05T08:35:26.583Z,963.51
2018-06-05T08:36:26.544Z,963.54
2018-06-05T08:37:26.503Z,963.57
2018-06-05T08:38:26.465Z,963.54
2018-06-05T08:39:26.457Z,963.53
2018-06-05T08:40:26.385Z,963.58
2018-06-05T08:41:26.345Z,963.54
2018-06-05T08:42:26.304Z,963.50
2018-06-05T08:43:26.294Z,963.51
2018-06-05T08:44:26.224Z,963.57
2018-06-05T08:45:26.189Z,963.63
2018-06-05T08:46:26.187Z,963.62
2018-06-05T08:47:26.114Z,963.58
2018-06-05T08:48:26.068Z,963.64
2018-06-05T08:49:26.030Z,963.64
2018-06-05T08:50:25.988Z,963.62
2018-06-05T08:51:25.984Z,963.63
2018-06-05T08:52:25.911Z,963.63
2018-06-05T08:53:25.871Z,963.65
2018-06-05T08:54:25.864Z,963.64
2018-06-05T08:55:25.795Z,963.63
2018-06-05T08:56:25.784Z,963.69
2018-06-05T08:57:25.718Z,963.73
2018-06-05T08:58:25.679Z,963.66
2018-06-05T08:59:25.640Z,963.60
2018-06-05T09:00:25.597Z,963.67
2018-06-05T09:01:25.601Z,963.67
2018-06-05T09:02:25.518Z,963.65
2018-06-05T09:03:25.483Z,963.62
2018-06-05T09:04:25.443Z,963.65
2018-06-05T09:05:25.508Z,963.70
2018-06-05T09:06:25.398Z,963.68
2018-06-05T09:07:25.327Z,963.62
2018-06-05T09:08:25.321Z,963.67
2018-06-05T09:09:25.249Z,963.70
2018-06-05T09:10:25.210Z,963.69
2018-06-05T09:11:25.173Z,963.74
2018-06-05T09:12:25.173Z,963.73
2018-06-05T09:13:25.096Z,963.70
2018-06-05T09:14:25.059Z,963.72
2018-06-05T09:15:25.019Z,963.73
2018-06-05T09:16:24.983Z,963.69
2018-06-05T09:17:24.974Z,963.72
2018-06-05T09:18:24.902Z,963.70
2018-06-05T09:19:24.897Z,963.73
2018-06-05T09:20:24.859Z,963.73
2018-06-05T09:21:24.821Z,963.71
2018-06-05T09:22:24.749Z,963.68
2018-06-05T09:23:24.711Z,963.75
2018-06-05T09:24:24.713Z,963.71
2018-06-05T09:25:24.672Z,963.69
2018-06-05T09:26:24.596Z,963.73
2018-06-05T09:27:24.560Z,963.70
2018-06-05T09:28:24.519Z,963.63
2018-06-05T09:29:24.513Z,963.69
2018-06-05T09:30:24.445Z,963.68
2018-06-05T09:31:24.406Z,963.70
2018-06-05T09:32:24.370Z,963.67
2018-06-05T09:33:24.364Z,963.73
2018-06-05T09:34:24.309Z,963.73
2018-06-05T09:35:24.299Z,963.75
2018-06-05T09:36:24.221Z,963.75
2018-06-05T09:37:24.181Z,963.75
2018-06-05T09:38:24.142Z,963.77
2018-06-05T09:39:24.109Z,963.75
2018-06-05T09:40:24.114Z,963.77
2018-06-05T09:41:24.030Z,963.79
2018-06-05T09:42:23.995Z,963.76
2018-06-05T09:43:23.956Z,963.79
2018-06-05T09:44:23.914Z,963.76
2018-06-05T09:45:23.926Z,963.76
2018-06-05T09:46:23.838Z,963.76
2018-06-05T09:47:23.800Z,963.75
2018-06-05T09:48:23.764Z,963.74
2018-06-05T09:49:23.727Z,963.72
2018-06-05T09:50:23.731Z,963.71
2018-06-05T09:51:23.653Z,963.70
2018-06-05T09:52:23.645Z,963.70
2018-06-05T09:53:23.577Z,963.72
2018-06-05T09:54:23.541Z,963.73
2018-06-05T09:55:23.535Z,963.72
2018-06-05T09:56:23.464Z,963.73
2018-06-05T09:57:23.460Z,963.70
2018-06-05T09:58:23.551Z,963.67
2018-06-05T09:59:23.354Z,963.71
2018-06-05T10:00:23.349Z,963.71
2018-06-05T10:01:23.333Z,963.68
2018-06-05T10:02:23.243Z,963.70
2018-06-05T10:03:23.205Z,963.69
2018-06-05T10:04:23.167Z,963.67
2018-06-05T10:05:23.131Z,963.65
2018-06-05T10:06:23.131Z,963.66
2018-06-05T10:07:23.055Z,963.65
2018-06-05T10:08:23.019Z,963.64
2018-06-05T10:09:22.985Z,963.66
2018-06-05T10:10:22.945Z,963.69
2018-06-05T10:11:22.961Z,963.65
2018-06-05T10:12:22.870Z,963.62
2018-06-05T10:13:22.836Z,963.59
2018-06-05T10:14:22.801Z,963.62
2018-06-05T10:15:22.763Z,963.59
2018-06-05T10:16:22.753Z,963.61
2018-06-05T10:17:22.687Z,963.61
2018-06-05T10:18:22.682Z,963.63
2018-06-05T10:19:22.650Z,963.62
2018-06-05T10:20:22.595Z,963.64
2018-06-05T10:21:22.542Z,963.64
2018-06-05T10:22:22.501Z,963.61
2018-06-05T10:23:22.507Z,963.63
2018-06-05T10:24:22.430Z,963.60
2018-06-05T10:25:22.398Z,963.62
2018-06-05T10:26:22.358Z,963.61
2018-06-05T10:27:22.320Z,963.59
2018-06-05T10:28:22.321Z,963.57
2018-06-05T10:29:22.255Z,963.56
2018-06-05T10:30:22.208Z,963.56
2018-06-05T10:31:22.178Z,963.57
2018-06-05T10:32:22.135Z,963.52
2018-06-05T10:33:22.142Z,963.52
2018-06-05T10:34:22.062Z,963.50
2018-06-05T10:35:22.027Z,963.52
2018-06-05T10:36:21.990Z,963.46
2018-06-05T10:37:21.965Z,963.53
2018-06-05T10:38:21.956Z,963.53
2018-06-05T10:39:21.879Z,963.51
2018-06-05T10:40:21.844Z,963.53
2018-06-05T10:41:21.808Z,963.53
2018-06-05T10:42:21.770Z,963.50
2018-06-05T10:43:21.767Z,963.49
2018-06-05T10:44:21.701Z,963.48
2018-06-05T10:45:21.694Z,963.49
2018-06-05T10:46:21.624Z,963.46
2018-06-05T10:47:21.589Z,963.46
2018-06-05T10:48:21.555Z,963.46
2018-06-05T10:49:21.548Z,963.49
2018-06-05T10:50:21.482Z,963.53
2018-06-05T10:51:21.445Z,963.49
2018-06-05T10:52:21.414Z,963.43
2018-06-05T10:53:21.381Z,963.51
2018-06-05T10:54:21.375Z,963.49
2018-06-05T10:55:21.310Z,963.49
2018-06-05T10:56:21.265Z,963.48
2018-06-05T10:57:21.232Z,963.44
2018-06-05T10:58:21.192Z,963.46
2018-06-05T10:59:21.191Z,963.46
2018-06-05T11:00:21.142Z,963.48
2018-06-05T11:01:21.081Z,963.46
2018-06-05T11:02:21.080Z,963.41
2018-06-05T11:03:21.015Z,963.40
2018-06-05T11:04:21.008Z,963.45
2018-06-05T11:05:20.943Z,963.46
2018-06-05T11:06:20.902Z,963.46
2018-06-05T11:07:20.867Z,963.46
2018-06-05T11:08:20.832Z,963.44
2018-06-05T11:09:20.843Z,963.43
2018-06-05T11:10:20.763Z,963.47
2018-06-05T11:11:20.728Z,963.47
2018-06-05T11:12:20.688Z,963.45
2018-06-05T11:13:20.655Z,963.42
2018-06-05T11:14:20.650Z,963.43
2018-06-05T11:15:20.622Z,963.45
2018-06-05T11:16:20.547Z,963.40
2018-06-05T11:17:20.509Z,963.41
2018-06-05T11:18:20.530Z,963.42
2018-06-05T11:19:20.438Z,963.41
2018-06-05T11:20:20.460Z,963.36
2018-06-05T11:21:20.370Z,963.38
2018-06-05T11:22:20.338Z,963.41
2018-06-05T11:23:20.295Z,963.36
2018-06-05T11:24:20.266Z,963.31
2018-06-05T11:25:20.251Z,963.29
2018-06-05T11:26:20.189Z,963.27
2018-06-05T11:27:20.157Z,963.30
2018-06-05T11:28:20.115Z,963.27
2018-06-05T11:29:20.083Z,963.28
2018-06-05T11:30:20.077Z,963.27
2018-06-05T11:31:20.060Z,963.26
2018-06-05T11:32:19.977Z,963.28
2018-06-05T11:33:19.942Z,963.31
2018-06-05T11:34:19.904Z,963.31
2018-06-05T11:35:19.869Z,963.32
2018-06-05T11:36:19.863Z,963.30
2018-06-05T11:37:19.800Z,963.29
2018-06-05T11:38:19.761Z,963.30
2018-06-05T11:39:19.725Z,963.30
2018-06-05T11:40:19.692Z,963.29
2018-06-05T11:41:19.691Z,963.29
2018-06-05T11:42:19.622Z,963.25
2018-06-05T11:43:19.590Z,963.21
2018-06-05T11:44:19.550Z,963.28
2018-06-05T11:45:19.547Z,963.26
2018-06-05T11:46:19.480Z,963.24
2018-06-05T11:47:19.442Z,963.26
2018-06-05T11:48:19.411Z,963.24
2018-06-05T11:49:19.374Z,963.21
2018-06-05T11:50:19.370Z,963.22
2018-06-05T11:51:19.301Z,963.20
2018-06-05T11:52:19.266Z,963.21
2018-06-05T11:53:19.265Z,963.18
2018-06-05T11:54:19.257Z,963.18
2018-06-05T11:55:19.160Z,963.18
2018-06-05T11:56:19.129Z,963.19
2018-06-05T11:57:19.093Z,963.19
2018-06-05T11:58:19.102Z,963.19
2018-06-05T11:59:19.022Z,963.15
2018-06-05T12:00:18.987Z,963.13
2018-06-05T12:01:18.956Z,963.12
2018-06-05T12:02:18.917Z,963.14
2018-06-05T12:03:18.924Z,963.15
2018-06-05T12:04:18.847Z,963.11
2018-06-05T12:05:18.811Z,963.10
2018-06-05T12:06:18.774Z,963.13
2018-06-05T12:07:18.741Z,963.10
2018-06-05T12:08:18.746Z,963.05
2018-06-05T12:09:18.674Z,963.12
2018-06-05T12:10:18.647Z,963.11
2018-06-05T12:11:18.633Z,963.08
2018-06-05T12:12:18.598Z,963.09
2018-06-05T12:13:18.538Z,963.05
2018-06-05T12:14:18.498Z,963.08
2018-06-05T12:15:18.486Z,963.05
2018-06-05T12:16:18.428Z,963.03
2018-06-05T12:17:18.425Z,963.04
2018-06-05T12:18:18.363Z,963.03
2018-06-05T12:19:18.321Z,962.99
2018-06-05T12:20:18.285Z,962.97
2018-06-05T12:21:18.294Z,962.94
2018-06-05T12:22:18.217Z,962.96
2018-06-05T12:23:18.181Z,962.92
2018-06-05T12:24:18.150Z,962.96
2018-06-05T12:25:18.111Z,962.91
2018-06-05T12:26:18.110Z,962.91
2018-06-05T12:27:18.043Z,962.90
2018-06-05T12:28:18.007Z,962.85
2018-06-05T12:29:17.973Z,962.87
2018-06-05T12:30:17.978Z,962.80
2018-06-05T12:31:17.906Z,962.81
2018-06-05T12:32:17.873Z,962.77
2018-06-05T12:33:17.834Z,962.78
2018-06-05T12:34:17.797Z,962.78
2018-06-05T12:35:17.794Z,962.80
2018-06-05T12:36:17.727Z,962.78
2018-06-05T12:37:17.695Z,962.79
2018-06-05T12:38:17.691Z,962.80
2018-06-05T12:39:17.624Z,962.83
2018-06-05T12:40:17.623Z,962.81
2018-06-05T12:41:17.559Z,962.78
2018-06-05T12:42:17.524Z,962.73
2018-06-05T12:43:17.484Z,962.72
2018-06-05T12:44:17.479Z,962.75
2018-06-05T12:45:17.413Z,962.70
2018-06-05T12:46:17.411Z,962.68
2018-06-05T12:47:17.347Z,962.66
2018-06-05T12:48:17.437Z,962.71
2018-06-05T12:49:17.280Z,962.70
2018-06-05T12:50:17.238Z,962.63
2018-06-05T12:51:17.202Z,962.61
2018-06-05T12:52:17.178Z,962.65
2018-06-05T12:53:17.167Z,962.64
2018-06-05T12:54:17.100Z,962.66